sensor_id;sensor_type;location;lat;lon;timestamp;P1;durP1;ratioP1;P2;durP2;ratioP2
1759;SDS011;877;46.266;20.062;2023-04-03T00:01:17;6.60;;;4.00;;
1759;SDS011;877;46.266;20.062;2023-04-03T00:03:45;6.33;;;3.90;;
1759;SDS011;877;46.266;20.062;2023-04-03T00:06:12;8.90;;;4.07;;
1759;SDS011;877;46.266;20.062;2023-04-03T00:08:39;7.73;;;3.63;;
1759;SDS011;877;46.266;20.062;2023-04-03T00:11:10;5.83;;;3.27;;
1759;SDS011;877;46.266;20.062;2023-04-03T00:13:37;5.30;;;3.70;;
1759;SDS011;877;46.266;20.062;2023-04-03T00:16:06;5.90;;;3.53;;
1759;SDS011;877;46.266;20.062;2023-04-03T00:18:34;6.73;;;4.20;;
1759;SDS011;877;46.266;20.062;2023-04-03T00:21:02;6.00;;;3.47;;
1759;SDS011;877;46.266;20.062;2023-04-03T00:23:37;6.60;;;3.73;;
1759;SDS011;877;46.266;20.062;2023-04-03T00:28:34;5.30;;;3.27;;
1759;SDS011;877;46.266;20.062;2023-04-03T00:31:00;4.47;;;3.00;;
1759;SDS011;877;46.266;20.062;2023-04-03T00:33:27;4.73;;;2.53;;
1759;SDS011;877;46.266;20.062;2023-04-03T00:38:49;4.73;;;2.93;;
1759;SDS011;877;46.266;20.062;2023-04-03T00:41:16;5.13;;;2.87;;
1759;SDS011;877;46.266;20.062;2023-04-03T00:43:43;4.30;;;2.67;;
1759;SDS011;877;46.266;20.062;2023-04-03T00:46:11;6.10;;;2.80;;
1759;SDS011;877;46.266;20.062;2023-04-03T00:51:35;4.30;;;2.30;;
1759;SDS011;877;46.266;20.062;2023-04-03T00:54:06;4.17;;;2.47;;
1759;SDS011;877;46.266;20.062;2023-04-03T00:59:20;4.73;;;2.13;;
1759;SDS011;877;46.266;20.062;2023-04-03T01:01:56;5.07;;;2.37;;
1759;SDS011;877;46.266;20.062;2023-04-03T01:04:31;4.37;;;2.60;;
1759;SDS011;877;46.266;20.062;2023-04-03T01:07:02;4.47;;;2.30;;
1759;SDS011;877;46.266;20.062;2023-04-03T01:09:38;3.80;;;2.13;;
1759;SDS011;877;46.266;20.062;2023-04-03T01:17:30;5.50;;;2.50;;
1759;SDS011;877;46.266;20.062;2023-04-03T01:22:34;4.97;;;2.50;;
1759;SDS011;877;46.266;20.062;2023-04-03T01:27:52;5.20;;;2.60;;
1759;SDS011;877;46.266;20.062;2023-04-03T01:30:30;3.87;;;2.30;;
1759;SDS011;877;46.266;20.062;2023-04-03T01:33:12;4.47;;;2.30;;
1759;SDS011;877;46.266;20.062;2023-04-03T01:35:50;3.37;;;2.20;;
1759;SDS011;877;46.266;20.062;2023-04-03T01:38:17;4.63;;;2.50;;
1759;SDS011;877;46.266;20.062;2023-04-03T01:43:27;4.20;;;2.00;;
1759;SDS011;877;46.266;20.062;2023-04-03T01:45:58;4.83;;;2.17;;
1759;SDS011;877;46.266;20.062;2023-04-03T01:48:40;4.37;;;1.80;;
1759;SDS011;877;46.266;20.062;2023-04-03T01:51:07;3.60;;;1.97;;
1759;SDS011;877;46.266;20.062;2023-04-03T01:53:43;4.97;;;2.00;;
1759;SDS011;877;46.266;20.062;2023-04-03T01:56:17;4.13;;;2.13;;
1759;SDS011;877;46.266;20.062;2023-04-03T02:01:18;3.50;;;1.73;;
1759;SDS011;877;46.266;20.062;2023-04-03T02:03:51;3.63;;;1.87;;
1759;SDS011;877;46.266;20.062;2023-04-03T02:06:26;3.45;;;1.50;;
1759;SDS011;877;46.266;20.062;2023-04-03T02:08:58;3.07;;;1.30;;
1759;SDS011;877;46.266;20.062;2023-04-03T02:11:24;3.00;;;1.70;;
1759;SDS011;877;46.266;20.062;2023-04-03T02:14:04;4.13;;;2.20;;
1759;SDS011;877;46.266;20.062;2023-04-03T02:16:32;2.90;;;1.50;;
1759;SDS011;877;46.266;20.062;2023-04-03T02:19:01;3.43;;;1.50;;
1759;SDS011;877;46.266;20.062;2023-04-03T02:21:27;2.70;;;1.43;;
1759;SDS011;877;46.266;20.062;2023-04-03T02:24:08;4.83;;;1.67;;
1759;SDS011;877;46.266;20.062;2023-04-03T02:26:40;3.40;;;1.60;;
1759;SDS011;877;46.266;20.062;2023-04-03T02:29:15;3.33;;;1.47;;
1759;SDS011;877;46.266;20.062;2023-04-03T02:31:47;3.63;;;1.40;;
1759;SDS011;877;46.266;20.062;2023-04-03T02:36:47;2.73;;;1.13;;
1759;SDS011;877;46.266;20.062;2023-04-03T02:39:13;2.70;;;1.40;;
1759;SDS011;877;46.266;20.062;2023-04-03T02:41:45;2.67;;;1.20;;
1759;SDS011;877;46.266;20.062;2023-04-03T02:44:14;2.70;;;1.10;;
1759;SDS011;877;46.266;20.062;2023-04-03T02:49:35;2.90;;;1.30;;
1759;SDS011;877;46.266;20.062;2023-04-03T02:52:07;4.13;;;1.30;;
1759;SDS011;877;46.266;20.062;2023-04-03T02:54:35;3.00;;;1.50;;
1759;SDS011;877;46.266;20.062;2023-04-03T02:57:05;2.90;;;1.37;;
1759;SDS011;877;46.266;20.062;2023-04-03T02:59:39;4.17;;;1.53;;
1759;SDS011;877;46.266;20.062;2023-04-03T03:07:51;3.40;;;1.63;;
1759;SDS011;877;46.266;20.062;2023-04-03T03:10:18;2.90;;;1.70;;
1759;SDS011;877;46.266;20.062;2023-04-03T03:15:22;3.22;;;1.40;;
1759;SDS011;877;46.266;20.062;2023-04-03T03:17:49;3.53;;;1.30;;
1759;SDS011;877;46.266;20.062;2023-04-03T03:22:48;3.50;;;1.43;;
1759;SDS011;877;46.266;20.062;2023-04-03T03:25:17;2.70;;;1.40;;
1759;SDS011;877;46.266;20.062;2023-04-03T03:30:33;2.90;;;1.20;;
1759;SDS011;877;46.266;20.062;2023-04-03T03:33:08;2.53;;;1.30;;
1759;SDS011;877;46.266;20.062;2023-04-03T03:35:35;2.77;;;1.23;;
1759;SDS011;877;46.266;20.062;2023-04-03T03:38:01;3.03;;;1.50;;
1759;SDS011;877;46.266;20.062;2023-04-03T03:40:28;2.75;;;1.23;;
1759;SDS011;877;46.266;20.062;2023-04-03T03:42:57;3.47;;;1.70;;
1759;SDS011;877;46.266;20.062;2023-04-03T03:45:23;2.75;;;1.20;;
1759;SDS011;877;46.266;20.062;2023-04-03T03:52:55;2.43;;;1.13;;
1759;SDS011;877;46.266;20.062;2023-04-03T03:55:23;3.10;;;1.30;;
1759;SDS011;877;46.266;20.062;2023-04-03T03:57:50;3.30;;;1.80;;
1759;SDS011;877;46.266;20.062;2023-04-03T04:00:22;3.17;;;1.63;;
1759;SDS011;877;46.266;20.062;2023-04-03T04:02:49;2.73;;;1.30;;
1759;SDS011;877;46.266;20.062;2023-04-03T04:05:15;2.65;;;1.30;;
1759;SDS011;877;46.266;20.062;2023-04-03T04:10:15;3.63;;;1.48;;
1759;SDS011;877;46.266;20.062;2023-04-03T04:12:44;2.70;;;1.40;;
1759;SDS011;877;46.266;20.062;2023-04-03T04:15:16;3.50;;;2.23;;
1759;SDS011;877;46.266;20.062;2023-04-03T04:17:51;3.60;;;1.60;;
1759;SDS011;877;46.266;20.062;2023-04-03T04:20:18;2.85;;;1.42;;
1759;SDS011;877;46.266;20.062;2023-04-03T04:22:46;3.90;;;1.60;;
1759;SDS011;877;46.266;20.062;2023-04-03T04:25:12;3.38;;;1.83;;
1759;SDS011;877;46.266;20.062;2023-04-03T04:27:38;4.07;;;1.73;;
1759;SDS011;877;46.266;20.062;2023-04-03T04:30:05;3.92;;;1.50;;
1759;SDS011;877;46.266;20.062;2023-04-03T04:32:38;2.50;;;1.37;;
1759;SDS011;877;46.266;20.062;2023-04-03T04:37:41;2.80;;;1.40;;
1759;SDS011;877;46.266;20.062;2023-04-03T04:40:07;2.60;;;1.40;;
1759;SDS011;877;46.266;20.062;2023-04-03T04:42:35;3.57;;;1.43;;
1759;SDS011;877;46.266;20.062;2023-04-03T04:45:01;2.77;;;1.40;;
1759;SDS011;877;46.266;20.062;2023-04-03T04:47:28;3.60;;;1.50;;
1759;SDS011;877;46.266;20.062;2023-04-03T04:49:55;4.17;;;1.87;;
1759;SDS011;877;46.266;20.062;2023-04-03T04:52:31;4.67;;;2.00;;
1759;SDS011;877;46.266;20.062;2023-04-03T04:55:02;3.23;;;1.37;;
1759;SDS011;877;46.266;20.062;2023-04-03T04:57:36;3.50;;;1.50;;
1759;SDS011;877;46.266;20.062;2023-04-03T05:00:04;2.67;;;1.50;;
1759;SDS011;877;46.266;20.062;2023-04-03T05:02:32;3.83;;;1.63;;
1759;SDS011;877;46.266;20.062;2023-04-03T05:04:59;3.00;;;1.70;;
1759;SDS011;877;46.266;20.062;2023-04-03T05:07:26;2.80;;;1.50;;
1759;SDS011;877;46.266;20.062;2023-04-03T05:09:53;2.80;;;1.67;;
1759;SDS011;877;46.266;20.062;2023-04-03T05:12:20;4.13;;;1.90;;
1759;SDS011;877;46.266;20.062;2023-04-03T05:14:48;3.17;;;1.92;;
1759;SDS011;877;46.266;20.062;2023-04-03T05:17:14;2.70;;;1.42;;
1759;SDS011;877;46.266;20.062;2023-04-03T05:19:42;3.15;;;1.80;;
1759;SDS011;877;46.266;20.062;2023-04-03T05:22:14;3.05;;;1.55;;
1759;SDS011;877;46.266;20.062;2023-04-03T05:24:40;5.45;;;1.48;;
1759;SDS011;877;46.266;20.062;2023-04-03T05:27:07;2.80;;;1.40;;
1759;SDS011;877;46.266;20.062;2023-04-03T05:29:35;3.70;;;1.70;;
1759;SDS011;877;46.266;20.062;2023-04-03T05:32:02;3.50;;;1.90;;
1759;SDS011;877;46.266;20.062;2023-04-03T05:34:34;3.30;;;1.77;;
1759;SDS011;877;46.266;20.062;2023-04-03T05:37:02;3.20;;;1.83;;
1759;SDS011;877;46.266;20.062;2023-04-03T05:39:30;3.50;;;1.90;;
1759;SDS011;877;46.266;20.062;2023-04-03T05:41:57;2.85;;;1.48;;
1759;SDS011;877;46.266;20.062;2023-04-03T05:44:24;2.97;;;1.42;;
1759;SDS011;877;46.266;20.062;2023-04-03T05:46:57;3.40;;;1.60;;
1759;SDS011;877;46.266;20.062;2023-04-03T05:49:25;3.53;;;1.70;;
1759;SDS011;877;46.266;20.062;2023-04-03T05:54:29;3.35;;;1.60;;
1759;SDS011;877;46.266;20.062;2023-04-03T05:56:55;3.00;;;1.80;;
1759;SDS011;877;46.266;20.062;2023-04-03T05:59:34;3.30;;;1.40;;
1759;SDS011;877;46.266;20.062;2023-04-03T06:04:58;4.50;;;2.07;;
1759;SDS011;877;46.266;20.062;2023-04-03T06:07:25;3.43;;;1.60;;
1759;SDS011;877;46.266;20.062;2023-04-03T06:10:02;2.80;;;1.50;;
1759;SDS011;877;46.266;20.062;2023-04-03T06:12:42;4.03;;;1.57;;
1759;SDS011;877;46.266;20.062;2023-04-03T06:15:08;3.33;;;1.73;;
1759;SDS011;877;46.266;20.062;2023-04-03T06:20:16;2.70;;;1.60;;
1759;SDS011;877;46.266;20.062;2023-04-03T06:25:35;3.03;;;1.47;;
1759;SDS011;877;46.266;20.062;2023-04-03T06:30:42;3.33;;;2.03;;
1759;SDS011;877;46.266;20.062;2023-04-03T06:35:39;3.90;;;1.83;;
1759;SDS011;877;46.266;20.062;2023-04-03T06:41:12;3.57;;;2.30;;
1759;SDS011;877;46.266;20.062;2023-04-03T06:43:39;3.40;;;1.70;;
1759;SDS011;877;46.266;20.062;2023-04-03T06:46:18;3.10;;;1.50;;
1759;SDS011;877;46.266;20.062;2023-04-03T06:49:00;3.50;;;1.70;;
1759;SDS011;877;46.266;20.062;2023-04-03T06:51:42;3.07;;;1.60;;
1759;SDS011;877;46.266;20.062;2023-04-03T06:54:26;3.03;;;1.40;;
1759;SDS011;877;46.266;20.062;2023-04-03T06:56:56;3.17;;;1.53;;
1759;SDS011;877;46.266;20.062;2023-04-03T06:59:29;3.60;;;1.53;;
1759;SDS011;877;46.266;20.062;2023-04-03T07:04:53;4.53;;;1.67;;
1759;SDS011;877;46.266;20.062;2023-04-03T07:10:03;3.20;;;1.70;;
1759;SDS011;877;46.266;20.062;2023-04-03T07:15:39;3.63;;;1.60;;
1759;SDS011;877;46.266;20.062;2023-04-03T07:18:20;5.33;;;2.17;;
1759;SDS011;877;46.266;20.062;2023-04-03T07:26:29;2.80;;;1.67;;
1759;SDS011;877;46.266;20.062;2023-04-03T07:39:46;2.70;;;1.47;;
1759;SDS011;877;46.266;20.062;2023-04-03T07:44:52;3.13;;;1.77;;
1759;SDS011;877;46.266;20.062;2023-04-03T07:47:33;3.47;;;1.67;;
1759;SDS011;877;46.266;20.062;2023-04-03T07:50:00;3.80;;;1.53;;
1759;SDS011;877;46.266;20.062;2023-04-03T07:52:32;2.47;;;1.10;;
1759;SDS011;877;46.266;20.062;2023-04-03T07:54:59;2.70;;;1.40;;
1759;SDS011;877;46.266;20.062;2023-04-03T08:02:53;2.60;;;1.30;;
1759;SDS011;877;46.266;20.062;2023-04-03T08:05:24;3.03;;;1.73;;
1759;SDS011;877;46.266;20.062;2023-04-03T08:10:37;3.30;;;1.67;;
1759;SDS011;877;46.266;20.062;2023-04-03T08:13:14;3.40;;;1.60;;
1759;SDS011;877;46.266;20.062;2023-04-03T08:15:47;2.50;;;1.27;;
1759;SDS011;877;46.266;20.062;2023-04-03T08:18:14;3.53;;;1.87;;
1759;SDS011;877;46.266;20.062;2023-04-03T08:23:26;3.87;;;1.40;;
1759;SDS011;877;46.266;20.062;2023-04-03T08:25:53;2.83;;;1.40;;
1759;SDS011;877;46.266;20.062;2023-04-03T08:28:36;2.30;;;1.20;;
1759;SDS011;877;46.266;20.062;2023-04-03T08:31:18;2.30;;;1.20;;
1759;SDS011;877;46.266;20.062;2023-04-03T08:33:45;2.40;;;1.13;;
1759;SDS011;877;46.266;20.062;2023-04-03T08:36:19;2.70;;;1.27;;
1759;SDS011;877;46.266;20.062;2023-04-03T08:38:47;2.97;;;1.60;;
1759;SDS011;877;46.266;20.062;2023-04-03T09:06:21;3.73;;;1.33;;
1759;SDS011;877;46.266;20.062;2023-04-03T09:11:43;2.80;;;1.10;;
1759;SDS011;877;46.266;20.062;2023-04-03T09:19:54;3.00;;;1.10;;
1759;SDS011;877;46.266;20.062;2023-04-03T09:22:32;2.97;;;1.17;;
1759;SDS011;877;46.266;20.062;2023-04-03T09:27:42;2.20;;;0.80;;
1759;SDS011;877;46.266;20.062;2023-04-03T09:30:12;2.63;;;0.80;;
1759;SDS011;877;46.266;20.062;2023-04-03T09:32:41;2.00;;;0.90;;
1759;SDS011;877;46.266;20.062;2023-04-03T10:00:00;5.30;;;1.17;;
1759;SDS011;877;46.266;20.062;2023-04-03T10:08:29;2.40;;;1.00;;
1759;SDS011;877;46.266;20.062;2023-04-03T10:13:58;3.57;;;1.40;;
1759;SDS011;877;46.266;20.062;2023-04-03T10:25:26;2.90;;;1.30;;
1759;SDS011;877;46.266;20.062;2023-04-03T10:52:48;2.20;;;1.00;;
1759;SDS011;877;46.266;20.062;2023-04-03T10:55:21;2.70;;;1.10;;
1759;SDS011;877;46.266;20.062;2023-04-03T10:57:54;3.00;;;1.10;;
1759;SDS011;877;46.266;20.062;2023-04-03T11:03:27;2.80;;;1.23;;
1759;SDS011;877;46.266;20.062;2023-04-03T11:06:12;2.60;;;1.27;;
1759;SDS011;877;46.266;20.062;2023-04-03T11:27:57;3.47;;;1.40;;
1759;SDS011;877;46.266;20.062;2023-04-03T11:36:23;2.80;;;1.40;;
1759;SDS011;877;46.266;20.062;2023-04-03T11:47:51;2.70;;;1.43;;
1759;SDS011;877;46.266;20.062;2023-04-03T11:56:48;5.03;;;1.20;;
1759;SDS011;877;46.266;20.062;2023-04-03T12:04:29;7.63;;;1.70;;
1759;SDS011;877;46.266;20.062;2023-04-03T12:07:13;2.50;;;1.33;;
1759;SDS011;877;46.266;20.062;2023-04-03T12:17:50;2.73;;;1.40;;
1759;SDS011;877;46.266;20.062;2023-04-03T14:11:44;5.17;;;2.37;;
1759;SDS011;877;46.266;20.062;2023-04-03T14:14:13;2.73;;;1.60;;
1759;SDS011;877;46.266;20.062;2023-04-03T14:16:43;3.07;;;1.67;;
1759;SDS011;877;46.266;20.062;2023-04-03T14:19:23;4.20;;;2.03;;
1759;SDS011;877;46.266;20.062;2023-04-03T14:21:50;3.33;;;1.60;;
1759;SDS011;877;46.266;20.062;2023-04-03T14:24:17;3.60;;;1.90;;
1759;SDS011;877;46.266;20.062;2023-04-03T14:27:01;3.43;;;1.70;;
1759;SDS011;877;46.266;20.062;2023-04-03T14:32:19;3.40;;;1.60;;
1759;SDS011;877;46.266;20.062;2023-04-03T14:34:50;2.70;;;1.60;;
1759;SDS011;877;46.266;20.062;2023-04-03T14:37:30;2.80;;;1.70;;
1759;SDS011;877;46.266;20.062;2023-04-03T14:42:42;3.73;;;1.90;;
1759;SDS011;877;46.266;20.062;2023-04-03T14:45:09;4.80;;;1.97;;
1759;SDS011;877;46.266;20.062;2023-04-03T14:47:54;4.20;;;2.07;;
1759;SDS011;877;46.266;20.062;2023-04-03T14:50:35;4.30;;;1.73;;
1759;SDS011;877;46.266;20.062;2023-04-03T14:53:02;3.47;;;1.70;;
1759;SDS011;877;46.266;20.062;2023-04-03T14:55:41;3.30;;;1.73;;
1759;SDS011;877;46.266;20.062;2023-04-03T14:58:11;3.87;;;1.53;;
1759;SDS011;877;46.266;20.062;2023-04-03T15:00:38;4.20;;;2.07;;
1759;SDS011;877;46.266;20.062;2023-04-03T15:03:21;2.90;;;1.60;;
1759;SDS011;877;46.266;20.062;2023-04-03T15:11:20;5.20;;;1.77;;
